sensor_id;sensor_type;location;lat;lon;timestamp;temperature;humidity
14995;DHT22;7593;49.006;8.372;2022-09-27T00:02:16;9.80;99.90
14995;DHT22;7593;49.006;8.372;2022-09-27T00:04:43;9.90;99.90
14995;DHT22;7593;49.006;8.372;2022-09-27T00:07:10;9.90;99.90
14995;DHT22;7593;49.006;8.372;2022-09-27T00:09:38;9.90;99.90
14995;DHT22;7593;49.006;8.372;2022-09-27T00:12:05;9.90;99.90
14995;DHT22;7593;49.006;8.372;2022-09-27T00:14:32;9.90;99.90
14995;DHT22;7593;49.006;8.372;2022-09-27T00:16:59;10.00;99.90
14995;DHT22;7593;49.006;8.372;2022-09-27T00:19:26;10.00;99.90
14995;DHT22;7593;49.006;8.372;2022-09-27T00:21:52;10.00;99.90
14995;DHT22;7593;49.006;8.372;2022-09-27T00:24:21;10.00;99.90
14995;DHT22;7593;49.006;8.372;2022-09-27T00:26:49;10.00;99.90
14995;DHT22;7593;49.006;8.372;2022-09-27T00:29:17;10.00;99.90
14995;DHT22;7593;49.006;8.372;2022-09-27T00:31:45;10.00;99.90
14995;DHT22;7593;49.006;8.372;2022-09-27T00:34:21;10.00;99.90
14995;DHT22;7593;49.006;8.372;2022-09-27T00:36:48;10.00;99.90
14995;DHT22;7593;49.006;8.372;2022-09-27T00:39:16;10.00;99.90
14995;DHT22;7593;49.006;8.372;2022-09-27T00:41:43;10.00;99.90
14995;DHT22;7593;49.006;8.372;2022-09-27T00:47:22;10.00;99.90
14995;DHT22;7593;49.006;8.372;2022-09-27T00:49:53;10.00;99.90
14995;DHT22;7593;49.006;8.372;2022-09-27T00:52:24;10.00;99.90
14995;DHT22;7593;49.006;8.372;2022-09-27T00:54:55;10.00;99.90
14995;DHT22;7593;49.006;8.372;2022-09-27T00:57:23;10.00;99.90
14995;DHT22;7593;49.006;8.372;2022-09-27T00:59:53;10.00;99.90
14995;DHT22;7593;49.006;8.372;2022-09-27T01:02:25;10.00;99.90
14995;DHT22;7593;49.006;8.372;2022-09-27T01:04:52;10.00;99.90
14995;DHT22;7593;49.006;8.372;2022-09-27T01:07:20;10.00;99.90
14995;DHT22;7593;49.006;8.372;2022-09-27T01:09:46;10.00;99.90
14995;DHT22;7593;49.006;8.372;2022-09-27T01:12:27;10.00;99.90
14995;DHT22;7593;49.006;8.372;2022-09-27T01:15:04;10.10;99.90
14995;DHT22;7593;49.006;8.372;2022-09-27T01:17:43;10.10;99.90
14995;DHT22;7593;49.006;8.372;2022-09-27T01:23:25;10.10;99.90
14995;DHT22;7593;49.006;8.372;2022-09-27T01:26:03;10.10;99.90
14995;DHT22;7593;49.006;8.372;2022-09-27T01:28:47;10.10;99.90
14995;DHT22;7593;49.006;8.372;2022-09-27T01:31:23;10.10;99.90
14995;DHT22;7593;49.006;8.372;2022-09-27T01:34:00;10.10;99.90
14995;DHT22;7593;49.006;8.372;2022-09-27T01:36:37;10.00;99.90
14995;DHT22;7593;49.006;8.372;2022-09-27T01:39:15;10.00;99.90
14995;DHT22;7593;49.006;8.372;2022-09-27T01:41:52;9.90;99.90
14995;DHT22;7593;49.006;8.372;2022-09-27T01:44:26;9.90;99.90
14995;DHT22;7593;49.006;8.372;2022-09-27T01:46:56;9.80;99.90
14995;DHT22;7593;49.006;8.372;2022-09-27T01:49:29;9.80;99.90
14995;DHT22;7593;49.006;8.372;2022-09-27T01:51:59;9.80;99.90
14995;DHT22;7593;49.006;8.372;2022-09-27T01:54:32;9.80;99.90
14995;DHT22;7593;49.006;8.372;2022-09-27T01:57:02;9.70;99.90
14995;DHT22;7593;49.006;8.372;2022-09-27T01:59:34;9.70;99.90
14995;DHT22;7593;49.006;8.372;2022-09-27T02:02:07;9.70;99.90
14995;DHT22;7593;49.006;8.372;2022-09-27T02:04:39;9.70;99.90
14995;DHT22;7593;49.006;8.372;2022-09-27T02:07:10;9.80;99.90
14995;DHT22;7593;49.006;8.372;2022-09-27T02:09:41;9.80;99.90
14995;DHT22;7593;49.006;8.372;2022-09-27T02:12:13;9.80;99.90
14995;DHT22;7593;49.006;8.372;2022-09-27T02:14:45;9.80;99.90
14995;DHT22;7593;49.006;8.372;2022-09-27T02:17:22;9.80;99.90
14995;DHT22;7593;49.006;8.372;2022-09-27T02:19:53;9.80;99.90
14995;DHT22;7593;49.006;8.372;2022-09-27T02:22:31;9.80;99.90
14995;DHT22;7593;49.006;8.372;2022-09-27T02:25:01;9.80;99.90
14995;DHT22;7593;49.006;8.372;2022-09-27T02:27:35;9.80;99.90
14995;DHT22;7593;49.006;8.372;2022-09-27T02:30:09;9.80;99.90
14995;DHT22;7593;49.006;8.372;2022-09-27T02:32:38;9.80;99.90
14995;DHT22;7593;49.006;8.372;2022-09-27T02:35:09;9.80;99.90
14995;DHT22;7593;49.006;8.372;2022-09-27T02:37:38;9.80;99.90
14995;DHT22;7593;49.006;8.372;2022-09-27T02:40:06;9.80;99.90
14995;DHT22;7593;49.006;8.372;2022-09-27T02:42:34;9.80;99.90
14995;DHT22;7593;49.006;8.372;2022-09-27T02:45:01;9.80;99.90
14995;DHT22;7593;49.006;8.372;2022-09-27T02:47:40;9.80;99.90
14995;DHT22;7593;49.006;8.372;2022-09-27T02:50:32;9.80;99.90
14995;DHT22;7593;49.006;8.372;2022-09-27T02:53:06;9.80;99.90
14995;DHT22;7593;49.006;8.372;2022-09-27T02:55:45;9.80;99.90
14995;DHT22;7593;49.006;8.372;2022-09-27T02:58:21;9.80;99.90
14995;DHT22;7593;49.006;8.372;2022-09-27T03:00:56;9.80;99.90
14995;DHT22;7593;49.006;8.372;2022-09-27T03:03:32;9.80;99.90
14995;DHT22;7593;49.006;8.372;2022-09-27T03:06:04;9.80;99.90
14995;DHT22;7593;49.006;8.372;2022-09-27T03:08:32;9.80;99.90
14995;DHT22;7593;49.006;8.372;2022-09-27T03:10:58;9.80;99.90
14995;DHT22;7593;49.006;8.372;2022-09-27T03:13:26;9.80;99.90
14995;DHT22;7593;49.006;8.372;2022-09-27T03:15:53;9.80;99.90
14995;DHT22;7593;49.006;8.372;2022-09-27T03:18:19;9.80;99.90
14995;DHT22;7593;49.006;8.372;2022-09-27T03:20:48;9.80;99.90
14995;DHT22;7593;49.006;8.372;2022-09-27T03:23:14;9.80;99.90
14995;DHT22;7593;49.006;8.372;2022-09-27T03:25:41;9.80;99.90
14995;DHT22;7593;49.006;8.372;2022-09-27T03:28:08;9.80;99.90
14995;DHT22;7593;49.006;8.372;2022-09-27T03:30:35;9.80;99.90
14995;DHT22;7593;49.006;8.372;2022-09-27T03:33:02;9.80;99.90
14995;DHT22;7593;49.006;8.372;2022-09-27T03:35:29;9.70;99.90
14995;DHT22;7593;49.006;8.372;2022-09-27T03:37:57;9.80;99.90
14995;DHT22;7593;49.006;8.372;2022-09-27T03:40:24;9.80;99.90
14995;DHT22;7593;49.006;8.372;2022-09-27T03:42:51;9.80;99.90
14995;DHT22;7593;49.006;8.372;2022-09-27T03:45:17;9.70;99.90
14995;DHT22;7593;49.006;8.372;2022-09-27T03:47:45;9.80;99.90
14995;DHT22;7593;49.006;8.372;2022-09-27T03:50:13;9.70;99.90
14995;DHT22;7593;49.006;8.372;2022-09-27T03:52:41;9.70;99.90
14995;DHT22;7593;49.006;8.372;2022-09-27T03:55:10;9.80;99.90
14995;DHT22;7593;49.006;8.372;2022-09-27T03:57:37;9.80;99.90
14995;DHT22;7593;49.006;8.372;2022-09-27T04:00:06;9.80;99.90
14995;DHT22;7593;49.006;8.372;2022-09-27T04:02:33;9.70;99.90
14995;DHT22;7593;49.006;8.372;2022-09-27T04:05:00;9.70;99.90
14995;DHT22;7593;49.006;8.372;2022-09-27T04:07:26;9.70;99.90
14995;DHT22;7593;49.006;8.372;2022-09-27T04:09:54;9.70;99.90
14995;DHT22;7593;49.006;8.372;2022-09-27T04:12:23;9.70;99.90
14995;DHT22;7593;49.006;8.372;2022-09-27T04:14:49;9.70;99.90
14995;DHT22;7593;49.006;8.372;2022-09-27T04:17:16;9.70;99.90
14995;DHT22;7593;49.006;8.372;2022-09-27T04:19:43;9.70;99.90
14995;DHT22;7593;49.006;8.372;2022-09-27T04:22:10;9.70;99.90
14995;DHT22;7593;49.006;8.372;2022-09-27T04:24:38;9.70;99.90
14995;DHT22;7593;49.006;8.372;2022-09-27T04:27:04;9.70;99.90
14995;DHT22;7593;49.006;8.372;2022-09-27T04:29:33;9.70;99.90
14995;DHT22;7593;49.006;8.372;2022-09-27T04:32:00;9.70;99.90
14995;DHT22;7593;49.006;8.372;2022-09-27T04:34:27;9.60;99.90
14995;DHT22;7593;49.006;8.372;2022-09-27T04:37:07;9.60;99.90
14995;DHT22;7593;49.006;8.372;2022-09-27T04:39:36;9.60;99.90
14995;DHT22;7593;49.006;8.372;2022-09-27T04:42:04;9.60;99.90
14995;DHT22;7593;49.006;8.372;2022-09-27T04:44:31;9.60;99.90
14995;DHT22;7593;49.006;8.372;2022-09-27T04:46:59;9.50;99.90
14995;DHT22;7593;49.006;8.372;2022-09-27T04:49:26;9.50;99.90
14995;DHT22;7593;49.006;8.372;2022-09-27T04:51:52;9.50;99.90
14995;DHT22;7593;49.006;8.372;2022-09-27T04:54:20;9.50;99.90
14995;DHT22;7593;49.006;8.372;2022-09-27T04:56:47;9.50;99.90
14995;DHT22;7593;49.006;8.372;2022-09-27T04:59:14;9.50;99.90
14995;DHT22;7593;49.006;8.372;2022-09-27T05:01:41;9.50;99.90
14995;DHT22;7593;49.006;8.372;2022-09-27T05:04:09;9.50;99.90
14995;DHT22;7593;49.006;8.372;2022-09-27T05:06:36;9.50;99.90
14995;DHT22;7593;49.006;8.372;2022-09-27T05:09:03;9.50;99.90
14995;DHT22;7593;49.006;8.372;2022-09-27T05:11:30;9.50;99.90
14995;DHT22;7593;49.006;8.372;2022-09-27T05:13:56;9.50;99.90
14995;DHT22;7593;49.006;8.372;2022-09-27T05:16:23;9.50;99.90
14995;DHT22;7593;49.006;8.372;2022-09-27T05:18:50;9.50;99.90
14995;DHT22;7593;49.006;8.372;2022-09-27T05:21:18;9.40;99.90
14995;DHT22;7593;49.006;8.372;2022-09-27T05:23:45;9.50;99.90
14995;DHT22;7593;49.006;8.372;2022-09-27T05:26:12;9.50;99.90
14995;DHT22;7593;49.006;8.372;2022-09-27T05:28:39;9.50;99.90
14995;DHT22;7593;49.006;8.372;2022-09-27T05:31:07;9.50;99.90
14995;DHT22;7593;49.006;8.372;2022-09-27T05:33:37;9.40;99.90
14995;DHT22;7593;49.006;8.372;2022-09-27T05:36:04;9.50;99.90
14995;DHT22;7593;49.006;8.372;2022-09-27T05:38:33;9.50;99.90
14995;DHT22;7593;49.006;8.372;2022-09-27T05:41:00;9.50;99.90
14995;DHT22;7593;49.006;8.372;2022-09-27T05:43:27;9.50;99.90
14995;DHT22;7593;49.006;8.372;2022-09-27T05:45:55;9.50;99.90
14995;DHT22;7593;49.006;8.372;2022-09-27T05:48:23;9.50;99.90
14995;DHT22;7593;49.006;8.372;2022-09-27T05:50:50;9.40;99.90
14995;DHT22;7593;49.006;8.372;2022-09-27T05:53:16;9.40;99.90
14995;DHT22;7593;49.006;8.372;2022-09-27T05:55:44;9.40;99.90
14995;DHT22;7593;49.006;8.372;2022-09-27T05:58:12;9.40;99.90
14995;DHT22;7593;49.006;8.372;2022-09-27T06:00:41;9.40;99.90
14995;DHT22;7593;49.006;8.372;2022-09-27T06:03:10;9.40;99.90
14995;DHT22;7593;49.006;8.372;2022-09-27T06:05:39;9.40;99.90
14995;DHT22;7593;49.006;8.372;2022-09-27T06:08:07;9.40;99.90
14995;DHT22;7593;49.006;8.372;2022-09-27T06:10:34;9.40;99.90
14995;DHT22;7593;49.006;8.372;2022-09-27T06:13:04;9.40;99.90
14995;DHT22;7593;49.006;8.372;2022-09-27T06:15:32;9.30;99.90
14995;DHT22;7593;49.006;8.372;2022-09-27T06:18:03;9.30;99.90
14995;DHT22;7593;49.006;8.372;2022-09-27T06:20:30;9.30;99.90
14995;DHT22;7593;49.006;8.372;2022-09-27T06:23:06;9.30;99.90
14995;DHT22;7593;49.006;8.372;2022-09-27T06:25:33;9.30;99.90
14995;DHT22;7593;49.006;8.372;2022-09-27T06:28:03;9.20;99.90
14995;DHT22;7593;49.006;8.372;2022-09-27T06:30:31;9.20;99.90
14995;DHT22;7593;49.006;8.372;2022-09-27T06:32:59;9.20;99.90
14995;DHT22;7593;49.006;8.372;2022-09-27T06:35:27;9.20;99.90
14995;DHT22;7593;49.006;8.372;2022-09-27T06:37:54;9.20;99.90
14995;DHT22;7593;49.006;8.372;2022-09-27T06:40:21;9.10;99.90
14995;DHT22;7593;49.006;8.372;2022-09-27T06:42:51;9.10;99.90
14995;DHT22;7593;49.006;8.372;2022-09-27T06:45:19;9.10;99.90
14995;DHT22;7593;49.006;8.372;2022-09-27T06:47:46;9.20;99.90
14995;DHT22;7593;49.006;8.372;2022-09-27T06:50:13;9.10;99.90
14995;DHT22;7593;49.006;8.372;2022-09-27T06:52:46;9.20;99.90
14995;DHT22;7593;49.006;8.372;2022-09-27T06:55:14;9.10;99.90
14995;DHT22;7593;49.006;8.372;2022-09-27T06:57:41;9.20;99.90
14995;DHT22;7593;49.006;8.372;2022-09-27T07:00:27;9.20;99.90
14995;DHT22;7593;49.006;8.372;2022-09-27T07:02:55;9.20;99.90
14995;DHT22;7593;49.006;8.372;2022-09-27T07:05:25;9.20;99.90
14995;DHT22;7593;49.006;8.372;2022-09-27T07:07:53;9.20;99.90
14995;DHT22;7593;49.006;8.372;2022-09-27T07:10:22;9.20;99.90
14995;DHT22;7593;49.006;8.372;2022-09-27T07:12:50;9.20;99.90
14995;DHT22;7593;49.006;8.372;2022-09-27T07:15:17;9.20;99.90
14995;DHT22;7593;49.006;8.372;2022-09-27T07:17:46;9.20;99.90
14995;DHT22;7593;49.006;8.372;2022-09-27T07:20:13;9.30;99.90
14995;DHT22;7593;49.006;8.372;2022-09-27T07:22:41;9.30;99.90
14995;DHT22;7593;49.006;8.372;2022-09-27T07:25:08;9.30;99.90
14995;DHT22;7593;49.006;8.372;2022-09-27T07:27:35;9.30;99.90
14995;DHT22;7593;49.006;8.372;2022-09-27T07:30:03;9.30;99.90
14995;DHT22;7593;49.006;8.372;2022-09-27T07:32:31;9.30;99.90
14995;DHT22;7593;49.006;8.372;2022-09-27T07:35:01;9.30;99.90
14995;DHT22;7593;49.006;8.372;2022-09-27T07:37:30;9.40;99.90
14995;DHT22;7593;49.006;8.372;2022-09-27T07:39:57;9.40;99.90
14995;DHT22;7593;49.006;8.372;2022-09-27T07:42:24;9.40;99.90
14995;DHT22;7593;49.006;8.372;2022-09-27T07:44:53;9.40;99.90
14995;DHT22;7593;49.006;8.372;2022-09-27T07:47:20;9.50;99.90
14995;DHT22;7593;49.006;8.372;2022-09-27T07:49:48;9.50;99.90
14995;DHT22;7593;49.006;8.372;2022-09-27T07:52:16;9.60;99.90
14995;DHT22;7593;49.006;8.372;2022-09-27T07:54:43;9.60;99.90
14995;DHT22;7593;49.006;8.372;2022-09-27T07:57:10;9.60;99.90
14995;DHT22;7593;49.006;8.372;2022-09-27T07:59:38;9.70;99.90
14995;DHT22;7593;49.006;8.372;2022-09-27T08:02:05;9.70;99.90
14995;DHT22;7593;49.006;8.372;2022-09-27T08:04:32;9.70;99.90
14995;DHT22;7593;49.006;8.372;2022-09-27T08:06:59;9.60;99.90
14995;DHT22;7593;49.006;8.372;2022-09-27T08:09:27;9.60;99.90
14995;DHT22;7593;49.006;8.372;2022-09-27T08:11:55;9.60;99.90
14995;DHT22;7593;49.006;8.372;2022-09-27T08:14:23;9.60;99.90
14995;DHT22;7593;49.006;8.372;2022-09-27T08:16:49;9.70;99.90
14995;DHT22;7593;49.006;8.372;2022-09-27T08:19:16;9.70;99.90
14995;DHT22;7593;49.006;8.372;2022-09-27T08:21:43;9.80;99.90
14995;DHT22;7593;49.006;8.372;2022-09-27T08:24:11;9.90;99.90
14995;DHT22;7593;49.006;8.372;2022-09-27T08:26:39;10.00;99.90
14995;DHT22;7593;49.006;8.372;2022-09-27T08:29:06;10.10;99.90
14995;DHT22;7593;49.006;8.372;2022-09-27T08:31:32;10.10;99.90
14995;DHT22;7593;49.006;8.372;2022-09-27T08:33:59;10.30;99.90
14995;DHT22;7593;49.006;8.372;2022-09-27T08:36:26;10.50;99.90
14995;DHT22;7593;49.006;8.372;2022-09-27T08:38:53;10.60;99.90
14995;DHT22;7593;49.006;8.372;2022-09-27T08:41:30;10.60;99.90
14995;DHT22;7593;49.006;8.372;2022-09-27T08:44:08;10.50;99.90
14995;DHT22;7593;49.006;8.372;2022-09-27T08:46:43;10.50;99.90
14995;DHT22;7593;49.006;8.372;2022-09-27T08:49:15;10.70;99.90
14995;DHT22;7593;49.006;8.372;2022-09-27T08:51:43;10.80;99.90
14995;DHT22;7593;49.006;8.372;2022-09-27T08:54:15;10.80;99.90
14995;DHT22;7593;49.006;8.372;2022-09-27T08:56:44;10.90;99.90
14995;DHT22;7593;49.006;8.372;2022-09-27T08:59:15;10.90;99.90
14995;DHT22;7593;49.006;8.372;2022-09-27T09:01:46;10.90;99.90
14995;DHT22;7593;49.006;8.372;2022-09-27T09:04:20;11.00;99.90
14995;DHT22;7593;49.006;8.372;2022-09-27T09:06:55;11.10;99.90
14995;DHT22;7593;49.006;8.372;2022-09-27T09:09:32;11.20;99.90
14995;DHT22;7593;49.006;8.372;2022-09-27T09:12:11;11.20;99.90
14995;DHT22;7593;49.006;8.372;2022-09-27T09:15:13;11.20;99.90
14995;DHT22;7593;49.006;8.372;2022-09-27T09:17:58;11.20;99.90
14995;DHT22;7593;49.006;8.372;2022-09-27T09:20:38;11.10;99.90
14995;DHT22;7593;49.006;8.372;2022-09-27T09:23:25;11.20;99.90
14995;DHT22;7593;49.006;8.372;2022-09-27T09:25:59;11.30;99.90
14995;DHT22;7593;49.006;8.372;2022-09-27T09:28:39;11.40;99.90
14995;DHT22;7593;49.006;8.372;2022-09-27T09:31:17;11.50;99.90
14995;DHT22;7593;49.006;8.372;2022-09-27T09:33:49;11.70;99.90
14995;DHT22;7593;49.006;8.372;2022-09-27T09:36:24;11.70;99.90
14995;DHT22;7593;49.006;8.372;2022-09-27T09:38:55;11.70;99.90
14995;DHT22;7593;49.006;8.372;2022-09-27T09:41:28;11.60;99.90
14995;DHT22;7593;49.006;8.372;2022-09-27T09:43:59;11.40;99.90
14995;DHT22;7593;49.006;8.372;2022-09-27T09:46:32;11.40;99.90
14995;DHT22;7593;49.006;8.372;2022-09-27T09:49:07;11.10;99.90
14995;DHT22;7593;49.006;8.372;2022-09-27T09:51:40;10.90;99.90
14995;DHT22;7593;49.006;8.372;2022-09-27T09:54:14;10.80;99.90
14995;DHT22;7593;49.006;8.372;2022-09-27T09:56:47;10.70;99.90
14995;DHT22;7593;49.006;8.372;2022-09-27T09:59:22;10.60;99.90
14995;DHT22;7593;49.006;8.372;2022-09-27T10:01:54;10.50;99.90
14995;DHT22;7593;49.006;8.372;2022-09-27T10:04:26;10.40;99.90
14995;DHT22;7593;49.006;8.372;2022-09-27T10:06:55;10.30;99.90
14995;DHT22;7593;49.006;8.372;2022-09-27T10:09:25;10.30;99.90
14995;DHT22;7593;49.006;8.372;2022-09-27T10:11:53;10.20;99.90
14995;DHT22;7593;49.006;8.372;2022-09-27T10:14:21;10.10;99.90
14995;DHT22;7593;49.006;8.372;2022-09-27T10:16:49;10.20;99.90
14995;DHT22;7593;49.006;8.372;2022-09-27T10:19:25;10.10;99.90
14995;DHT22;7593;49.006;8.372;2022-09-27T10:21:58;10.10;99.90
14995;DHT22;7593;49.006;8.372;2022-09-27T10:24:27;10.10;99.90
14995;DHT22;7593;49.006;8.372;2022-09-27T10:26:57;10.00;99.90
14995;DHT22;7593;49.006;8.372;2022-09-27T10:29:29;10.00;99.90
14995;DHT22;7593;49.006;8.372;2022-09-27T10:31:58;9.90;99.90
14995;DHT22;7593;49.006;8.372;2022-09-27T10:34:30;9.80;99.90
14995;DHT22;7593;49.006;8.372;2022-09-27T10:37:02;9.60;99.90
14995;DHT22;7593;49.006;8.372;2022-09-27T10:39:29;9.50;99.90
14995;DHT22;7593;49.006;8.372;2022-09-27T10:41:56;9.50;99.90
14995;DHT22;7593;49.006;8.372;2022-09-27T10:44:25;9.30;99.90
14995;DHT22;7593;49.006;8.372;2022-09-27T10:46:54;9.10;99.90
14995;DHT22;7593;49.006;8.372;2022-09-27T10:49:25;8.90;99.90
14995;DHT22;7593;49.006;8.372;2022-09-27T10:51:55;8.80;99.90
14995;DHT22;7593;49.006;8.372;2022-09-27T10:54:24;8.70;99.90
14995;DHT22;7593;49.006;8.372;2022-09-27T10:56:57;8.50;99.90
14995;DHT22;7593;49.006;8.372;2022-09-27T10:59:27;8.50;99.90
14995;DHT22;7593;49.006;8.372;2022-09-27T11:01:57;8.40;99.90
14995;DHT22;7593;49.006;8.372;2022-09-27T11:04:30;8.30;99.90
14995;DHT22;7593;49.006;8.372;2022-09-27T11:07:13;8.20;99.90
14995;DHT22;7593;49.006;8.372;2022-09-27T11:09:48;8.20;99.90
14995;DHT22;7593;49.006;8.372;2022-09-27T11:12:16;8.20;99.90
14995;DHT22;7593;49.006;8.372;2022-09-27T11:14:52;8.10;99.90
14995;DHT22;7593;49.006;8.372;2022-09-27T11:17:25;8.10;99.90
14995;DHT22;7593;49.006;8.372;2022-09-27T11:20:05;8.00;99.90
14995;DHT22;7593;49.006;8.372;2022-09-27T11:23:03;8.10;99.90
14995;DHT22;7593;49.006;8.372;2022-09-27T11:25:40;8.10;99.90
14995;DHT22;7593;49.006;8.372;2022-09-27T11:28:17;8.10;99.90
14995;DHT22;7593;49.006;8.372;2022-09-27T11:30:53;8.10;99.90
14995;DHT22;7593;49.006;8.372;2022-09-27T11:33:37;8.10;99.90
14995;DHT22;7593;49.006;8.372;2022-09-27T11:36:12;8.10;99.90
14995;DHT22;7593;49.006;8.372;2022-09-27T11:38:52;8.10;99.90
14995;DHT22;7593;49.006;8.372;2022-09-27T11:41:36;8.20;99.90
14995;DHT22;7593;49.006;8.372;2022-09-27T11:44:17;8.20;99.90
14995;DHT22;7593;49.006;8.372;2022-09-27T11:46:52;8.20;99.90
14995;DHT22;7593;49.006;8.372;2022-09-27T11:49:45;8.20;99.90
14995;DHT22;7593;49.006;8.372;2022-09-27T11:52:30;8.30;99.90
14995;DHT22;7593;49.006;8.372;2022-09-27T11:55:12;8.60;99.90
14995;DHT22;7593;49.006;8.372;2022-09-27T11:57:43;8.90;99.90
14995;DHT22;7593;49.006;8.372;2022-09-27T12:00:16;9.10;99.90
14995;DHT22;7593;49.006;8.372;2022-09-27T12:03:18;9.40;99.90
14995;DHT22;7593;49.006;8.372;2022-09-27T12:05:59;9.60;99.90
14995;DHT22;7593;49.006;8.372;2022-09-27T12:08:42;10.10;99.90
14995;DHT22;7593;49.006;8.372;2022-09-27T12:11:18;10.30;99.90
14995;DHT22;7593;49.006;8.372;2022-09-27T12:13:48;10.30;99.90
14995;DHT22;7593;49.006;8.372;2022-09-27T12:16:16;10.20;99.90
14995;DHT22;7593;49.006;8.372;2022-09-27T12:18:45;10.00;99.90
14995;DHT22;7593;49.006;8.372;2022-09-27T12:21:15;9.80;99.90
14995;DHT22;7593;49.006;8.372;2022-09-27T12:23:44;9.70;99.90
14995;DHT22;7593;49.006;8.372;2022-09-27T12:26:16;9.80;99.90
14995;DHT22;7593;49.006;8.372;2022-09-27T12:28:48;10.30;99.90
14995;DHT22;7593;49.006;8.372;2022-09-27T12:31:19;11.00;99.90
14995;DHT22;7593;49.006;8.372;2022-09-27T12:33:53;11.40;99.90
14995;DHT22;7593;49.006;8.372;2022-09-27T12:36:27;11.50;99.90
14995;DHT22;7593;49.006;8.372;2022-09-27T12:39:01;11.40;99.90
14995;DHT22;7593;49.006;8.372;2022-09-27T12:41:35;11.40;99.90
14995;DHT22;7593;49.006;8.372;2022-09-27T12:44:03;11.40;99.90
14995;DHT22;7593;49.006;8.372;2022-09-27T12:46:37;11.30;99.90
14995;DHT22;7593;49.006;8.372;2022-09-27T12:49:12;11.10;99.90
14995;DHT22;7593;49.006;8.372;2022-09-27T12:51:44;11.00;99.90
14995;DHT22;7593;49.006;8.372;2022-09-27T12:54:29;10.90;99.90
14995;DHT22;7593;49.006;8.372;2022-09-27T12:57:07;10.80;99.90
14995;DHT22;7593;49.006;8.372;2022-09-27T12:59:49;10.90;99.90
14995;DHT22;7593;49.006;8.372;2022-09-27T13:02:38;10.80;99.90
14995;DHT22;7593;49.006;8.372;2022-09-27T13:05:24;10.70;99.90
14995;DHT22;7593;49.006;8.372;2022-09-27T13:08:04;10.70;99.90
14995;DHT22;7593;49.006;8.372;2022-09-27T13:10:49;10.60;99.90
14995;DHT22;7593;49.006;8.372;2022-09-27T13:13:21;10.60;99.90
14995;DHT22;7593;49.006;8.372;2022-09-27T13:15:55;10.70;99.90
14995;DHT22;7593;49.006;8.372;2022-09-27T13:18:31;10.70;99.90
14995;DHT22;7593;49.006;8.372;2022-09-27T13:24:44;10.60;99.90
14995;DHT22;7593;49.006;8.372;2022-09-27T13:27:37;10.60;99.90
14995;DHT22;7593;49.006;8.372;2022-09-27T13:33:41;10.50;99.90
14995;DHT22;7593;49.006;8.372;2022-09-27T13:36:18;10.40;99.90
14995;DHT22;7593;49.006;8.372;2022-09-27T13:39:02;10.50;99.90
14995;DHT22;7593;49.006;8.372;2022-09-27T13:41:38;10.40;99.90
14995;DHT22;7593;49.006;8.372;2022-09-27T13:44:12;10.30;99.90
14995;DHT22;7593;49.006;8.372;2022-09-27T13:46:46;10.30;99.90
14995;DHT22;7593;49.006;8.372;2022-09-27T13:49:22;10.30;99.90
14995;DHT22;7593;49.006;8.372;2022-09-27T13:51:54;10.20;99.90
14995;DHT22;7593;49.006;8.372;2022-09-27T13:54:37;10.10;99.90
14995;DHT22;7593;49.006;8.372;2022-09-27T13:57:41;9.90;99.90
14995;DHT22;7593;49.006;8.372;2022-09-27T14:00:11;9.70;99.90
14995;DHT22;7593;49.006;8.372;2022-09-27T14:02:54;9.60;99.90
14995;DHT22;7593;49.006;8.372;2022-09-27T14:05:29;9.50;99.90
14995;DHT22;7593;49.006;8.372;2022-09-27T14:07:58;9.40;99.90
14995;DHT22;7593;49.006;8.372;2022-09-27T14:10:27;9.40;99.90
14995;DHT22;7593;49.006;8.372;2022-09-27T14:12:55;9.40;99.90
14995;DHT22;7593;49.006;8.372;2022-09-27T14:15:26;9.30;99.90
14995;DHT22;7593;49.006;8.372;2022-09-27T14:17:53;9.30;99.90
14995;DHT22;7593;49.006;8.372;2022-09-27T14:20:34;9.40;99.90
14995;DHT22;7593;49.006;8.372;2022-09-27T14:23:02;9.60;99.90
14995;DHT22;7593;49.006;8.372;2022-09-27T14:25:29;10.30;99.90
14995;DHT22;7593;49.006;8.372;2022-09-27T14:27:56;10.50;99.90
14995;DHT22;7593;49.006;8.372;2022-09-27T14:30:26;11.30;99.90
14995;DHT22;7593;49.006;8.372;2022-09-27T14:32:54;12.40;99.90
14995;DHT22;7593;49.006;8.372;2022-09-27T14:35:24;13.10;99.90
14995;DHT22;7593;49.006;8.372;2022-09-27T14:38:11;13.40;99.90
14995;DHT22;7593;49.006;8.372;2022-09-27T14:40:41;12.90;99.90
14995;DHT22;7593;49.006;8.372;2022-09-27T14:43:14;12.50;99.90
14995;DHT22;7593;49.006;8.372;2022-09-27T14:45:42;12.60;99.90
14995;DHT22;7593;49.006;8.372;2022-09-27T14:48:20;12.60;99.90
14995;DHT22;7593;49.006;8.372;2022-09-27T14:50:55;12.50;99.90
14995;DHT22;7593;49.006;8.372;2022-09-27T14:53:28;12.30;99.90
14995;DHT22;7593;49.006;8.372;2022-09-27T14:55:56;12.30;99.90
14995;DHT22;7593;49.006;8.372;2022-09-27T14:58:23;12.60;99.90
14995;DHT22;7593;49.006;8.372;2022-09-27T15:00:51;13.00;99.90
14995;DHT22;7593;49.006;8.372;2022-09-27T15:03:22;13.50;99.90
14995;DHT22;7593;49.006;8.372;2022-09-27T15:05:50;13.90;99.90
14995;DHT22;7593;49.006;8.372;2022-09-27T15:08:20;14.20;99.90
14995;DHT22;7593;49.006;8.372;2022-09-27T15:10:50;14.30;99.90
14995;DHT22;7593;49.006;8.372;2022-09-27T15:13:17;14.30;99.90
14995;DHT22;7593;49.006;8.372;2022-09-27T15:15:45;13.70;99.90
14995;DHT22;7593;49.006;8.372;2022-09-27T15:18:38;13.50;99.90
14995;DHT22;7593;49.006;8.372;2022-09-27T15:21:06;13.10;99.90
14995;DHT22;7593;49.006;8.372;2022-09-27T15:23:36;12.60;99.90
14995;DHT22;7593;49.006;8.372;2022-09-27T15:26:10;12.10;99.90
14995;DHT22;7593;49.006;8.372;2022-09-27T15:28:42;11.80;99.90
14995;DHT22;7593;49.006;8.372;2022-09-27T15:31:09;11.50;99.90
14995;DHT22;7593;49.006;8.372;2022-09-27T15:33:36;11.40;99.90
14995;DHT22;7593;49.006;8.372;2022-09-27T15:36:05;11.30;99.90
14995;DHT22;7593;49.006;8.372;2022-09-27T15:38:32;11.10;99.90
14995;DHT22;7593;49.006;8.372;2022-09-27T15:41:14;11.00;99.90
14995;DHT22;7593;49.006;8.372;2022-09-27T15:43:43;11.00;99.90
14995;DHT22;7593;49.006;8.372;2022-09-27T15:46:31;11.00;99.90
14995;DHT22;7593;49.006;8.372;2022-09-27T15:49:26;10.90;99.90
14995;DHT22;7593;49.006;8.372;2022-09-27T15:51:56;10.90;99.90
14995;DHT22;7593;49.006;8.372;2022-09-27T15:54:25;10.80;99.90
14995;DHT22;7593;49.006;8.372;2022-09-27T15:56:56;10.70;99.90
14995;DHT22;7593;49.006;8.372;2022-09-27T15:59:30;10.60;99.90
14995;DHT22;7593;49.006;8.372;2022-09-27T16:01:59;10.40;99.90
14995;DHT22;7593;49.006;8.372;2022-09-27T16:04:27;10.40;99.90
14995;DHT22;7593;49.006;8.372;2022-09-27T16:06:56;10.40;99.90
14995;DHT22;7593;49.006;8.372;2022-09-27T16:09:25;10.40;99.90
14995;DHT22;7593;49.006;8.372;2022-09-27T16:11:52;10.50;99.90
14995;DHT22;7593;49.006;8.372;2022-09-27T16:14:20;10.50;99.90
14995;DHT22;7593;49.006;8.372;2022-09-27T16:16:49;10.40;99.90
14995;DHT22;7593;49.006;8.372;2022-09-27T16:19:16;10.40;99.90
14995;DHT22;7593;49.006;8.372;2022-09-27T16:21:43;10.30;99.90
14995;DHT22;7593;49.006;8.372;2022-09-27T16:24:10;10.30;99.90
14995;DHT22;7593;49.006;8.372;2022-09-27T16:26:37;10.20;99.90
14995;DHT22;7593;49.006;8.372;2022-09-27T16:29:09;10.30;99.90
14995;DHT22;7593;49.006;8.372;2022-09-27T16:31:37;10.30;99.90
14995;DHT22;7593;49.006;8.372;2022-09-27T16:34:04;10.30;99.90
14995;DHT22;7593;49.006;8.372;2022-09-27T16:36:31;10.30;99.90